createdAt,value
2015-03-16T07:39:10.906Z,102035
2015-03-16T07:39:21.469Z,102029
2015-03-16T07:39:32.016Z,102031
2015-03-16T07:39:43.281Z,102025
2015-03-16T07:39:53.828Z,102020
2015-03-16T07:40:04.299Z,102037
2015-03-16T07:40:14.799Z,102025
2015-03-16T07:40:25.314Z,102031
2015-03-16T07:40:36.236Z,102034
2015-03-16T07:40:46.721Z,102028
2015-03-16T07:40:57.236Z,102031
2015-03-16T07:41:07.770Z,102028
2015-03-16T07:41:18.316Z,102031
2015-03-16T07:41:28.816Z,102034
2015-03-16T07:41:39.363Z,102034
2015-03-16T07:41:49.895Z,102022
2015-03-16T07:42:00.410Z,102034
2015-03-16T07:42:10.943Z,102023
2015-03-16T07:42:21.522Z,102034
2015-03-16T07:42:32.037Z,102026
2015-03-16T07:42:42.584Z,102029
2015-03-16T07:42:53.115Z,102040
2015-03-16T07:43:03.615Z,102035
2015-03-16T07:43:14.164Z,102040
2015-03-16T07:43:24.680Z,102029
2015-03-16T07:43:35.195Z,102029
2015-03-16T07:43:45.742Z,102031
2015-03-16T07:43:56.289Z,102029
2015-03-16T07:44:06.761Z,102031
2015-03-16T07:44:17.245Z,102037
2015-03-16T07:44:27.777Z,102031
2015-03-16T07:44:38.323Z,102023
2015-03-16T07:44:48.948Z,102029
2015-03-16T07:44:59.448Z,102029
2015-03-16T07:45:10.622Z,102040
2015-03-16T07:45:21.169Z,102032
2015-03-16T07:45:31.685Z,102037
2015-03-16T07:45:42.325Z,102037
2015-03-16T07:45:52.841Z,102035
2015-03-16T07:46:03.388Z,102032
2015-03-16T07:46:13.906Z,102029
2015-03-16T07:46:24.437Z,102029
2015-03-16T07:46:34.984Z,102029
2015-03-16T07:46:45.515Z,102035
2015-03-16T07:46:56.077Z,102032
2015-03-16T07:47:06.593Z,102038
2015-03-16T07:47:17.112Z,102029
2015-03-16T07:47:27.643Z,102040
2015-03-16T07:47:38.737Z,102037
2015-03-16T07:47:49.237Z,102031
2015-03-16T07:47:59.752Z,102026
2015-03-16T07:48:10.271Z,102034
2015-03-16T07:48:20.787Z,102026
2015-03-16T07:48:31.318Z,102035
2015-03-16T07:48:41.833Z,102031
2015-03-16T07:48:52.349Z,102028
2015-03-16T07:49:02.880Z,102031
2015-03-16T07:49:13.414Z,102022
2015-03-16T07:49:23.976Z,102037
2015-03-16T07:49:35.023Z,102028
2015-03-16T07:49:45.523Z,102028
2015-03-16T07:49:56.117Z,102034
2015-03-16T07:50:06.664Z,102025
2015-03-16T07:50:17.197Z,102028
2015-03-16T07:50:27.744Z,102028
2015-03-16T07:50:38.275Z,102031
2015-03-16T07:50:48.822Z,102025
2015-03-16T07:50:59.353Z,102034
2015-03-16T07:51:09.872Z,102022
2015-03-16T07:51:20.403Z,102019
2015-03-16T07:51:30.934Z,102031
2015-03-16T07:51:41.465Z,102028
2015-03-16T07:51:52.262Z,102028
2015-03-16T07:52:03.184Z,102028
2015-03-16T07:52:13.763Z,102037
2015-03-16T07:52:24.310Z,102034
2015-03-16T07:52:34.841Z,102028
2015-03-16T07:52:45.435Z,102031
2015-03-16T07:52:55.951Z,102019
2015-03-16T07:53:06.482Z,102020
2015-03-16T07:53:17.593Z,102023
2015-03-16T07:53:28.140Z,102028
2015-03-16T07:53:38.797Z,102025
2015-03-16T07:53:49.343Z,102028
2015-03-16T07:53:59.859Z,102034
2015-03-16T07:54:10.440Z,102023
2015-03-16T07:54:21.034Z,102022
2015-03-16T07:54:31.550Z,102031
2015-03-16T07:54:42.096Z,102020
2015-03-16T07:54:52.675Z,102028
2015-03-16T07:55:03.221Z,102031
2015-03-16T07:55:13.740Z,102037
2015-03-16T07:55:24.287Z,102034
2015-03-16T07:56:26.539Z,102025
2015-03-16T07:56:37.148Z,102025
2015-03-16T07:56:47.726Z,102020
2015-03-16T07:56:58.258Z,102023
2015-03-16T07:57:08.789Z,102031
2015-03-16T07:57:19.307Z,102029
2015-03-16T07:57:30.494Z,102028
2015-03-16T07:58:32.668Z,102032
2015-03-16T07:58:43.199Z,102026
2015-03-16T07:58:53.715Z,102029
2015-03-16T07:59:04.262Z,102032
2015-03-16T07:59:14.780Z,102032
2015-03-16T07:59:25.312Z,102034
2015-03-16T07:59:35.843Z,102026
2015-03-16T07:59:46.374Z,102029
2015-03-16T07:59:56.952Z,102029
2015-03-16T08:00:07.499Z,102023
2015-03-16T08:00:18.079Z,102032
2015-03-16T08:00:28.610Z,102032
2015-03-16T08:00:39.173Z,102026
2015-03-16T08:00:49.751Z,102029
2015-03-16T08:01:00.298Z,102023
2015-03-16T08:01:10.814Z,102026
2015-03-16T08:01:22.035Z,102023
2015-03-16T08:01:32.582Z,102026
2015-03-16T08:01:43.176Z,102031
2015-03-16T08:01:53.676Z,102026
2015-03-16T08:02:04.192Z,102028
2015-03-16T08:02:14.707Z,102020
2015-03-16T08:02:25.272Z,102020
2015-03-16T08:02:35.803Z,102028
2015-03-16T08:02:46.319Z,102026
2015-03-16T08:02:56.865Z,102026
2015-03-16T08:03:07.412Z,102023
2015-03-16T08:03:17.930Z,102023
2015-03-16T08:03:28.461Z,102026
2015-03-16T08:03:39.008Z,102017
2015-03-16T08:03:49.524Z,102020
2015-03-16T08:04:00.149Z,102020
2015-03-16T08:04:10.664Z,102026
2015-03-16T08:04:21.198Z,102026
2015-03-16T08:04:31.791Z,102026
2015-03-16T08:04:42.541Z,102011
2015-03-16T08:04:53.104Z,102020
2015-03-16T08:05:03.979Z,102020
2015-03-16T08:05:14.541Z,102026
2015-03-16T08:05:25.637Z,102020
2015-03-16T08:05:37.403Z,102026
2015-03-16T08:05:47.950Z,102029
2015-03-16T08:05:58.481Z,102026
2015-03-16T08:06:09.028Z,102026
2015-03-16T08:06:20.187Z,102020
2015-03-16T08:06:30.703Z,102023
2015-03-16T08:06:41.218Z,102023
2015-03-16T08:06:51.749Z,102020
2015-03-16T08:07:02.546Z,102020
2015-03-16T08:07:13.062Z,102023
2015-03-16T08:07:23.626Z,102020
2015-03-16T08:07:34.970Z,102020
2015-03-16T08:07:45.486Z,102014
2015-03-16T08:07:56.017Z,102023
2015-03-16T08:08:06.517Z,102020
2015-03-16T08:08:17.048Z,102014
2015-03-16T08:08:27.614Z,102020
2015-03-16T08:08:38.161Z,102020
2015-03-16T08:08:48.708Z,102014
2015-03-16T08:08:59.254Z,102017
2015-03-16T08:09:09.833Z,102011
2015-03-16T08:09:20.381Z,102011
2015-03-16T08:09:30.928Z,102009
2015-03-16T08:09:41.475Z,102009
2015-03-16T08:09:52.006Z,102007
2015-03-16T08:10:02.522Z,102020
2015-03-16T08:10:13.038Z,102014
2015-03-16T08:10:24.399Z,102010
2015-03-16T08:10:34.946Z,102009
2015-03-16T08:10:45.508Z,102011
2015-03-16T08:10:56.055Z,102020
2015-03-16T08:11:06.618Z,102009
2015-03-16T08:11:17.196Z,102011
2015-03-16T08:11:27.745Z,102017
2015-03-16T08:11:38.839Z,102020
2015-03-16T08:11:49.385Z,102011
2015-03-16T08:11:59.885Z,102014
2015-03-16T08:12:10.385Z,102012
2015-03-16T08:12:20.920Z,102020
2015-03-16T08:12:31.435Z,102015
2015-03-16T08:12:41.951Z,102017
2015-03-16T08:12:52.498Z,102018
2015-03-16T08:13:03.045Z,102018
2015-03-16T08:13:13.592Z,102010
2015-03-16T08:13:24.656Z,102010
2015-03-16T08:13:35.203Z,102010
2015-03-16T08:13:45.719Z,102010
2015-03-16T08:13:56.250Z,102007
2015-03-16T08:14:06.797Z,102010
2015-03-16T08:14:17.312Z,102007
2015-03-16T08:14:27.831Z,102004
2015-03-16T08:14:38.362Z,102004
2015-03-16T08:14:48.909Z,102007
2015-03-16T08:14:59.456Z,102018
2015-03-16T08:15:09.972Z,102015
2015-03-16T08:15:20.534Z,102004
2015-03-16T08:15:31.083Z,102007
2015-03-16T08:15:41.614Z,102017
2015-03-16T08:15:52.161Z,102009
2015-03-16T08:16:02.708Z,102017
2015-03-16T08:16:13.286Z,102009
2015-03-16T08:16:23.833Z,102004
2015-03-16T08:16:34.335Z,102014
2015-03-16T08:16:44.866Z,102017
2015-03-16T08:16:55.382Z,102009
2015-03-16T08:17:05.913Z,102006
2015-03-16T08:17:16.460Z,102011
2015-03-16T08:17:26.978Z,102006
2015-03-16T08:17:37.509Z,102011
2015-03-16T08:17:48.024Z,102006
2015-03-16T08:17:58.571Z,102011
2015-03-16T08:18:09.149Z,102011
2015-03-16T08:18:19.712Z,102009
2015-03-16T08:18:30.293Z,102014
2015-03-16T08:18:40.809Z,102009
2015-03-16T08:18:51.371Z,102009
2015-03-16T08:19:01.887Z,102011
2015-03-16T08:19:12.387Z,102014
2015-03-16T08:19:22.902Z,102011
2015-03-16T08:19:33.452Z,102011
2015-03-16T08:19:43.968Z,102011
2015-03-16T08:19:54.484Z,102009
2015-03-16T08:20:05.015Z,102009
2015-03-16T08:20:15.562Z,102011
2015-03-16T08:20:26.032Z,102011
2015-03-16T08:20:36.611Z,102010
2015-03-16T08:20:47.157Z,102007
2015-03-16T08:20:57.673Z,102007
2015-03-16T08:21:08.251Z,102007
2015-03-16T08:21:18.767Z,101998
2015-03-16T08:21:29.268Z,102009
2015-03-16T08:21:39.783Z,102014
2015-03-16T08:21:50.315Z,102011
2015-03-16T08:22:00.799Z,102006
2015-03-16T08:22:11.330Z,102009
2015-03-16T08:22:21.846Z,102009
2015-03-16T08:22:32.365Z,102003
2015-03-16T08:22:42.880Z,102009
2015-03-16T08:22:53.396Z,102003
2015-03-16T08:23:03.943Z,102006
2015-03-16T08:23:14.474Z,102009
2015-03-16T08:23:24.990Z,102011
2015-03-16T08:23:35.524Z,102011
2015-03-16T08:23:46.039Z,102011
2015-03-16T08:23:56.586Z,102009
2015-03-16T08:24:07.118Z,102003
2015-03-16T08:24:17.633Z,101994
2015-03-16T08:24:28.196Z,102003
2015-03-16T08:24:38.698Z,102000
2015-03-16T08:24:49.276Z,102009
2015-03-16T08:24:59.791Z,102003
2015-03-16T08:25:10.323Z,102003
2015-03-16T08:25:20.885Z,101997
2015-03-16T08:25:31.435Z,102003
2015-03-16T08:25:41.966Z,102000
2015-03-16T08:25:52.513Z,102003
2015-03-16T08:26:03.076Z,102006
2015-03-16T08:26:13.654Z,102000
2015-03-16T08:26:24.169Z,102003
2015-03-16T08:26:34.796Z,102003
2015-03-16T08:26:45.296Z,101997
2015-03-16T08:26:55.843Z,102009
2015-03-16T08:27:06.359Z,102006
2015-03-16T08:27:16.890Z,102003
2015-03-16T08:27:27.437Z,102006
2015-03-16T08:27:37.955Z,102000
2015-03-16T08:27:48.564Z,102006
2015-03-16T08:27:59.064Z,102009
2015-03-16T08:28:09.595Z,101994
2015-03-16T08:28:20.142Z,102000
2015-03-16T08:28:30.658Z,102003
2015-03-16T08:28:41.160Z,102000
2015-03-16T08:28:51.691Z,102003
2015-03-16T08:29:02.222Z,101997
2015-03-16T08:29:12.738Z,102006
2015-03-16T08:29:23.238Z,102000
2015-03-16T08:29:33.803Z,102011
2015-03-16T08:29:44.319Z,102006
2015-03-16T08:29:54.835Z,102014
2015-03-16T08:30:05.397Z,102003
2015-03-16T08:30:15.960Z,102003
2015-03-16T08:30:26.507Z,102006
2015-03-16T08:30:37.024Z,101997
2015-03-16T08:30:47.555Z,102006
2015-03-16T08:30:58.102Z,101995
2015-03-16T08:31:08.727Z,101992
2015-03-16T08:31:19.305Z,102001
2015-03-16T08:31:30.430Z,102001
2015-03-16T08:31:41.511Z,102001
2015-03-16T08:31:52.026Z,102003
2015-03-16T08:32:02.557Z,102009
2015-03-16T08:32:13.120Z,102001
2015-03-16T08:32:23.620Z,102001
2015-03-16T08:32:34.170Z,102001
2015-03-16T08:32:44.685Z,102001
2015-03-16T08:32:55.217Z,102007
2015-03-16T08:33:05.748Z,102007
2015-03-16T08:33:16.310Z,102010
2015-03-16T08:33:26.810Z,102004
2015-03-16T08:33:37.452Z,101998
2015-03-16T08:33:47.999Z,102007
2015-03-16T08:33:58.530Z,102007
2015-03-16T08:34:09.030Z,102010
2015-03-16T08:34:19.483Z,102004
2015-03-16T08:34:30.061Z,101995
2015-03-16T08:34:40.580Z,102004
2015-03-16T08:34:51.127Z,102004
2015-03-16T08:35:01.689Z,102004
2015-03-16T08:35:12.236Z,102004
2015-03-16T08:35:22.721Z,102001
2015-03-16T08:35:33.299Z,102007
2015-03-16T08:35:43.817Z,102010
2015-03-16T08:35:54.364Z,102007
2015-03-16T08:36:04.958Z,101998
2015-03-16T08:36:16.177Z,102001
2015-03-16T08:36:26.755Z,102001
2015-03-16T08:36:37.257Z,102007
2015-03-16T08:36:47.741Z,102004
2015-03-16T08:36:58.257Z,102000
2015-03-16T08:37:08.804Z,102000
2015-03-16T08:37:19.351Z,102006
2015-03-16T08:37:29.804Z,102009
2015-03-16T08:37:40.790Z,102006
2015-03-16T08:37:51.306Z,101997
2015-03-16T08:38:01.837Z,102000
2015-03-16T08:38:13.087Z,102009
2015-03-16T08:38:23.634Z,102003
2015-03-16T08:38:34.150Z,102009
2015-03-16T08:38:44.684Z,101997
2015-03-16T08:38:55.184Z,102000
2015-03-16T08:39:05.668Z,102006
2015-03-16T08:39:16.184Z,102000
2015-03-16T08:39:26.746Z,102006
2015-03-16T08:39:37.262Z,102009
2015-03-16T08:39:47.811Z,102003
2015-03-16T08:39:58.326Z,102006
2015-03-16T08:40:08.858Z,102001
2015-03-16T08:40:19.326Z,102004
2015-03-16T08:40:29.873Z,102001
2015-03-16T08:40:40.391Z,102004
2015-03-16T08:40:50.938Z,102007
2015-03-16T08:41:01.547Z,102001
2015-03-16T08:41:12.110Z,102011
2015-03-16T08:41:23.141Z,102004
2015-03-16T08:41:33.641Z,102004
2015-03-16T08:41:44.143Z,101995
2015-03-16T08:41:54.659Z,102007
2015-03-16T08:42:05.190Z,101995
2015-03-16T08:42:15.705Z,101998
2015-03-16T08:42:26.237Z,102001
2015-03-16T08:42:36.768Z,102004
2015-03-16T08:42:47.332Z,102007
2015-03-16T08:42:57.832Z,102012
2015-03-16T08:43:08.379Z,101995
2015-03-16T08:43:19.317Z,101995
2015-03-16T08:43:29.832Z,101998
2015-03-16T08:43:40.820Z,102001
2015-03-16T08:43:52.054Z,101998
2015-03-16T08:44:02.601Z,102004
2015-03-16T08:44:13.132Z,101993
2015-03-16T08:44:23.648Z,101993
2015-03-16T08:44:34.195Z,101996
2015-03-16T08:44:44.791Z,102004
2015-03-16T08:44:55.353Z,101999
2015-03-16T08:45:05.916Z,101999
2015-03-16T08:45:16.447Z,102004
2015-03-16T08:45:27.009Z,102004
2015-03-16T08:45:37.556Z,101998
2015-03-16T08:45:48.089Z,102010
2015-03-16T08:45:58.652Z,102001
2015-03-16T08:46:09.199Z,101992
2015-03-16T08:46:19.730Z,101995
2015-03-16T08:46:30.246Z,102001
2015-03-16T08:46:40.780Z,101998
2015-03-16T08:46:51.342Z,101995
2015-03-16T08:47:01.905Z,101998
2015-03-16T08:47:12.452Z,102007
2015-03-16T08:47:23.030Z,102001
2015-03-16T08:47:33.577Z,102004
2015-03-16T08:47:44.094Z,102004
2015-03-16T08:47:54.673Z,101996
2015-03-16T08:48:05.188Z,102004
2015-03-16T08:48:15.766Z,101995
2015-03-16T08:48:26.360Z,102004
2015-03-16T08:48:36.891Z,101992
2015-03-16T08:48:47.426Z,102001
2015-03-16T08:48:57.957Z,101990
2015-03-16T08:49:08.504Z,101998
2015-03-16T08:49:19.097Z,101998
2015-03-16T08:49:29.660Z,101993
2015-03-16T08:49:40.316Z,101981
2015-03-16T08:49:50.865Z,101990
2015-03-16T08:50:01.396Z,101995
2015-03-16T08:50:11.959Z,101995
2015-03-16T08:50:22.506Z,101998
2015-03-16T08:50:33.053Z,101989
2015-03-16T08:50:43.587Z,101998
2015-03-16T08:50:54.227Z,101998
2015-03-16T08:51:04.806Z,101989
2015-03-16T08:51:15.337Z,101989
2015-03-16T08:51:25.884Z,101998
2015-03-16T08:51:36.540Z,101992
2015-03-16T08:51:47.088Z,101992
2015-03-16T08:51:57.635Z,101995
2015-03-16T08:52:08.213Z,101998
2015-03-16T08:52:18.760Z,101995
2015-03-16T08:52:29.307Z,101998
2015-03-16T08:52:39.885Z,102001
2015-03-16T08:52:50.419Z,101998
2015-03-16T08:53:00.919Z,101990
2015-03-16T08:53:11.466Z,101998
2015-03-16T08:53:22.044Z,102007
2015-03-16T08:53:32.560Z,102001
2015-03-16T08:53:43.106Z,101992
2015-03-16T08:53:53.734Z,101990
2015-03-16T08:54:04.266Z,102007
2015-03-16T08:54:14.875Z,101981
2015-03-16T08:54:25.406Z,102007
2015-03-16T08:54:35.922Z,101990
2015-03-16T08:54:46.455Z,101987
2015-03-16T08:54:57.033Z,101990
2015-03-16T08:55:07.611Z,101981
2015-03-16T08:55:18.174Z,101984
2015-03-16T08:55:28.721Z,101984
2015-03-16T08:55:39.268Z,101978
2015-03-16T08:55:49.848Z,101981
2015-03-16T08:56:01.207Z,101981
2015-03-16T08:56:11.723Z,101981
2015-03-16T08:56:22.254Z,101981
2015-03-16T08:56:32.754Z,101990
2015-03-16T08:56:43.301Z,101990
2015-03-16T08:56:53.865Z,101981
2015-03-16T08:57:04.428Z,101992
2015-03-16T08:57:15.006Z,101992
2015-03-16T08:57:25.490Z,101992
2015-03-16T08:57:36.194Z,101984
2015-03-16T08:57:46.728Z,101992
2015-03-16T08:57:57.275Z,101986
2015-03-16T08:58:07.806Z,101995
2015-03-16T08:58:18.368Z,101992
2015-03-16T08:58:28.868Z,101989
2015-03-16T08:58:39.400Z,101990
2015-03-16T08:58:49.964Z,101995
2015-03-16T08:59:00.933Z,101984
2015-03-16T08:59:11.480Z,102001
2015-03-16T08:59:22.011Z,102001
2015-03-16T08:59:32.558Z,101992
2015-03-16T08:59:43.074Z,101989
2015-03-16T08:59:53.669Z,101989
2015-03-16T09:00:04.263Z,101995
2015-03-16T09:00:14.810Z,101990
2015-03-16T09:00:25.388Z,101984
2015-03-16T09:00:35.919Z,101990
2015-03-16T09:00:46.454Z,101981
2015-03-16T09:00:57.032Z,101987
2015-03-16T09:01:07.563Z,101987
2015-03-16T09:01:18.094Z,101981
2015-03-16T09:01:28.641Z,101978
2015-03-16T09:01:39.157Z,101990
2015-03-16T09:01:49.706Z,101990
2015-03-16T09:02:00.268Z,101984
2015-03-16T09:02:10.831Z,101981
2015-03-16T09:02:21.393Z,101978
2015-03-16T09:02:31.909Z,101984
2015-03-16T09:02:42.456Z,101984
2015-03-16T09:02:53.004Z,101987
2015-03-16T09:03:03.551Z,101987
2015-03-16T09:03:14.098Z,101984
2015-03-16T09:03:24.614Z,101987
2015-03-16T09:03:35.098Z,101987
2015-03-16T09:03:45.583Z,101982
2015-03-16T09:03:56.101Z,101996
2015-03-16T09:04:06.632Z,101985
2015-03-16T09:04:17.195Z,101990
2015-03-16T09:04:27.742Z,101981
2015-03-16T09:04:38.351Z,101981
2015-03-16T09:04:48.869Z,101990
2015-03-16T09:04:59.338Z,101993
2015-03-16T09:05:09.806Z,101990
2015-03-16T09:05:20.275Z,101984
2015-03-16T09:05:30.775Z,101973
2015-03-16T09:05:41.275Z,101990
2015-03-16T09:05:51.886Z,101981
2015-03-16T09:06:02.371Z,101984
2015-03-16T09:06:12.855Z,101978
2015-03-16T09:06:23.324Z,101981
2015-03-16T09:06:33.824Z,101981
2015-03-16T09:06:44.371Z,101976
2015-03-16T09:06:54.889Z,101984
2015-03-16T09:07:05.389Z,101987
2015-03-16T09:07:15.936Z,101984
2015-03-16T09:07:26.327Z,101976
2015-03-16T09:07:36.858Z,101979
2015-03-16T09:07:47.374Z,101987
2015-03-16T09:07:57.922Z,101979
2015-03-16T09:08:08.422Z,101973
2015-03-16T09:08:18.984Z,101982
2015-03-16T09:08:30.140Z,101976
2015-03-16T09:08:40.703Z,101979
2015-03-16T09:08:51.237Z,101987
2015-03-16T09:09:01.831Z,101976
2015-03-16T09:09:12.409Z,101984
2015-03-16T09:09:23.643Z,101984
2015-03-16T09:09:34.300Z,101984
2015-03-16T09:09:44.800Z,101976
2015-03-16T09:09:55.364Z,101984
2015-03-16T09:10:05.864Z,101981
2015-03-16T09:10:16.458Z,101970
2015-03-16T09:10:26.974Z,101970
2015-03-16T09:10:37.505Z,101979
2015-03-16T09:10:48.020Z,101991
2015-03-16T09:10:58.522Z,101982
2015-03-16T09:11:09.038Z,101979
2015-03-16T09:11:19.569Z,101985
2015-03-16T09:11:30.116Z,101991
2015-03-16T09:11:40.772Z,101985
2015-03-16T09:11:51.912Z,101982
2015-03-16T09:12:02.428Z,101982
2015-03-16T09:12:12.975Z,101982
2015-03-16T09:12:23.506Z,101985
2015-03-16T09:12:34.022Z,101982
2015-03-16T09:12:44.522Z,101982
2015-03-16T09:12:55.067Z,101979
2015-03-16T09:13:05.598Z,101976
2015-03-16T09:13:16.130Z,101985
2015-03-16T09:13:26.614Z,101979
2015-03-16T09:13:37.161Z,101979
2015-03-16T09:13:47.645Z,101985
2015-03-16T09:13:58.145Z,101985
2015-03-16T09:14:08.613Z,101982
2015-03-16T09:14:19.113Z,101991
2015-03-16T09:14:29.629Z,101985
2015-03-16T09:14:40.535Z,101982
2015-03-16T09:14:51.066Z,101982
2015-03-16T09:15:01.627Z,101979
2015-03-16T09:15:12.127Z,101976
2015-03-16T09:15:22.627Z,101979
2015-03-16T09:15:33.174Z,101982
2015-03-16T09:15:43.659Z,101976
2015-03-16T09:15:54.220Z,101982
2015-03-16T09:16:04.736Z,101985
2015-03-16T09:16:15.267Z,101977
2015-03-16T09:16:25.783Z,101985
2015-03-16T09:16:36.299Z,101979
2015-03-16T09:16:46.799Z,101976
2015-03-16T09:16:57.322Z,101976
2015-03-16T09:17:07.853Z,101982
2015-03-16T09:17:18.369Z,101974
2015-03-16T09:17:29.557Z,101988
2015-03-16T09:17:40.041Z,101979
2015-03-16T09:17:50.588Z,101979
2015-03-16T09:18:01.078Z,101988
2015-03-16T09:18:11.563Z,101985
2015-03-16T09:18:22.063Z,101979
2015-03-16T09:18:32.563Z,101973
2015-03-16T09:18:43.031Z,101979
2015-03-16T09:18:53.547Z,101985
2015-03-16T09:19:04.054Z,101979
2015-03-16T09:19:14.554Z,101982
2015-03-16T09:19:25.054Z,101973
2015-03-16T09:19:35.570Z,101985
2015-03-16T09:19:46.070Z,101979
2015-03-16T09:19:56.529Z,101979
2015-03-16T09:20:07.076Z,101979
2015-03-16T09:20:17.591Z,101976
2015-03-16T09:20:28.091Z,101976
2015-03-16T09:20:38.576Z,101982
2015-03-16T09:20:49.107Z,101979
2015-03-16T09:20:59.614Z,101979
2015-03-16T09:21:10.145Z,101991
2015-03-16T09:21:20.723Z,101985
2015-03-16T09:21:31.317Z,101976
2015-03-16T09:21:41.895Z,101973
2015-03-16T09:21:52.473Z,101982
2015-03-16T09:22:03.023Z,101988
2015-03-16T09:22:14.273Z,101988
2015-03-16T09:22:25.086Z,101976
2015-03-16T09:22:35.601Z,101976
2015-03-16T09:22:46.070Z,101988
2015-03-16T09:22:56.559Z,101991
2015-03-16T09:23:07.059Z,101982
2015-03-16T09:23:17.591Z,101979
2015-03-16T09:23:28.044Z,101979
2015-03-16T09:23:38.669Z,101982
2015-03-16T09:23:49.153Z,101985
2015-03-16T09:23:59.640Z,101982
2015-03-16T09:24:10.125Z,101994
2015-03-16T09:24:20.594Z,101979
2015-03-16T09:24:31.156Z,101985
2015-03-16T09:24:41.703Z,101979
2015-03-16T09:24:52.250Z,101979
2015-03-16T09:25:02.801Z,101979
2015-03-16T09:25:13.285Z,101979
2015-03-16T09:25:23.863Z,101979
2015-03-16T09:25:35.035Z,101985
2015-03-16T09:25:45.551Z,101979
2015-03-16T09:25:56.394Z,101979
2015-03-16T09:26:06.929Z,101988
2015-03-16T09:26:17.476Z,101976
2015-03-16T09:26:27.944Z,101976
2015-03-16T09:26:38.491Z,101976
2015-03-16T09:26:49.022Z,101976
2015-03-16T09:26:59.557Z,101976
2015-03-16T09:27:10.025Z,101979
2015-03-16T09:27:20.557Z,101976
2015-03-16T09:27:31.088Z,101982
2015-03-16T09:27:41.572Z,101979
2015-03-16T09:27:52.072Z,101974
2015-03-16T09:28:02.592Z,101976
2015-03-16T09:28:13.092Z,101976
2015-03-16T09:28:23.592Z,101976
2015-03-16T09:28:34.139Z,101971
2015-03-16T09:28:44.654Z,101968
2015-03-16T09:28:55.186Z,101977
2015-03-16T09:29:05.689Z,101971
2015-03-16T09:29:16.142Z,101971
2015-03-16T09:29:26.657Z,101968
2015-03-16T09:29:37.173Z,101968
2015-03-16T09:29:47.704Z,101959
2015-03-16T09:29:58.192Z,101962
2015-03-16T09:30:08.754Z,101968
2015-03-16T09:30:19.239Z,101974
2015-03-16T09:30:29.770Z,101968
2015-03-16T09:30:40.254Z,101977
2015-03-16T09:30:50.785Z,101968
2015-03-16T09:31:01.304Z,101977
2015-03-16T09:31:11.788Z,101965
2015-03-16T09:31:22.304Z,101965
2015-03-16T09:31:32.773Z,101971
2015-03-16T09:31:43.257Z,101974
2015-03-16T09:31:53.757Z,101968
2015-03-16T09:32:04.229Z,101968
2015-03-16T09:32:14.729Z,101965
2015-03-16T09:32:25.229Z,101968
2015-03-16T09:32:35.745Z,101971
2015-03-16T09:32:46.291Z,101971
2015-03-16T09:32:56.776Z,101962
2015-03-16T09:33:07.262Z,101971
2015-03-16T09:33:17.778Z,101971
2015-03-16T09:33:28.309Z,101962
2015-03-16T09:33:39.434Z,101956
2015-03-16T09:33:50.622Z,101962
2015-03-16T09:34:01.139Z,101974
2015-03-16T09:34:11.639Z,101974
2015-03-16T09:34:22.108Z,101965
2015-03-16T09:34:32.608Z,101971
2015-03-16T09:34:43.124Z,101971
2015-03-16T09:34:53.655Z,101968
2015-03-16T09:35:04.157Z,101965
2015-03-16T09:35:14.641Z,101965
2015-03-16T09:35:25.094Z,101962
2015-03-16T09:35:35.610Z,101965
2015-03-16T09:35:46.079Z,101971
2015-03-16T09:35:56.547Z,101974
2015-03-16T09:36:07.050Z,101959
2015-03-16T09:36:17.644Z,101965
2015-03-16T09:36:28.160Z,101965
2015-03-16T09:36:38.660Z,101968
2015-03-16T09:36:49.175Z,101965
2015-03-16T09:36:59.722Z,101965
2015-03-16T09:37:10.896Z,101974
2015-03-16T09:37:21.459Z,101971
2015-03-16T09:37:32.006Z,101965
2015-03-16T09:37:43.115Z,101959
2015-03-16T09:37:53.615Z,101965
2015-03-16T09:38:04.101Z,101962
2015-03-16T09:38:14.617Z,101974
2015-03-16T09:38:25.164Z,101962
2015-03-16T09:38:35.679Z,101968
2015-03-16T09:38:46.179Z,101965
2015-03-16T09:38:56.679Z,101959
2015-03-16T09:39:07.276Z,101968
2015-03-16T09:39:17.792Z,101962
2015-03-16T09:39:28.339Z,101968
2015-03-16T09:39:38.948Z,101977
2015-03-16T09:39:49.432Z,101959
2015-03-16T09:39:59.901Z,101962
2015-03-16T09:40:10.497Z,101965
2015-03-16T09:40:20.997Z,101959
2015-03-16T09:40:31.497Z,101965
2015-03-16T09:40:41.981Z,101968
2015-03-16T09:40:52.497Z,101968
2015-03-16T09:41:02.981Z,101977
2015-03-16T09:41:13.546Z,101968
2015-03-16T09:41:24.061Z,101965
2015-03-16T09:41:34.999Z,101963
2015-03-16T09:41:45.577Z,101960
2015-03-16T09:41:56.124Z,101963
2015-03-16T09:42:06.704Z,101963
2015-03-16T09:42:17.220Z,101966
2015-03-16T09:42:27.798Z,101965
2015-03-16T09:42:38.345Z,101971
2015-03-16T09:42:48.860Z,101957
2015-03-16T09:42:59.423Z,101963
2015-03-16T09:43:10.021Z,101974
2015-03-16T09:43:20.630Z,101960
2015-03-16T09:43:31.161Z,101960
2015-03-16T09:43:41.724Z,101974
2015-03-16T09:43:52.239Z,101974
2015-03-16T09:44:02.771Z,101963
2015-03-16T09:44:13.304Z,101960
2015-03-16T09:44:23.819Z,101954
2015-03-16T09:44:34.335Z,101966
2015-03-16T09:44:44.835Z,101954
2015-03-16T09:44:55.351Z,101960
2015-03-16T09:45:05.898Z,101972
2015-03-16T09:45:16.415Z,101960
2015-03-16T09:45:26.915Z,101966
2015-03-16T09:45:37.415Z,101969
2015-03-16T09:45:47.931Z,101960
2015-03-16T09:45:59.009Z,101960
2015-03-16T09:46:09.558Z,101955
2015-03-16T09:46:20.058Z,101961
2015-03-16T09:46:30.558Z,101960
2015-03-16T09:46:41.136Z,101960
2015-03-16T09:46:51.683Z,101963
2015-03-16T09:47:02.198Z,101960
2015-03-16T09:47:12.717Z,101961
2015-03-16T09:47:23.248Z,101958
2015-03-16T09:47:33.842Z,101969
2015-03-16T09:47:44.951Z,101958
2015-03-16T09:47:55.498Z,101955
2015-03-16T09:48:05.998Z,101960
2015-03-16T09:48:16.500Z,101963
2015-03-16T09:48:26.985Z,101972
2015-03-16T09:48:37.500Z,101960
2015-03-16T09:48:48.000Z,101966
2015-03-16T09:48:58.485Z,101966
2015-03-16T09:49:08.953Z,101960
2015-03-16T09:49:19.455Z,101963
2015-03-16T09:49:29.987Z,101966
2015-03-16T09:49:41.252Z,101966
2015-03-16T09:49:51.799Z,101963
2015-03-16T09:50:02.268Z,101963
2015-03-16T09:50:12.802Z,101960
2015-03-16T09:50:23.271Z,101963
2015-03-16T09:50:33.833Z,101960
2015-03-16T09:50:44.365Z,101960
2015-03-16T09:50:54.912Z,101954
2015-03-16T09:51:05.396Z,101957
2015-03-16T09:51:15.897Z,101951
2015-03-16T09:51:26.397Z,101963
2015-03-16T09:51:36.850Z,101963
2015-03-16T09:51:47.444Z,101949
2015-03-16T09:51:57.959Z,101954
2015-03-16T09:52:09.116Z,101957
2015-03-16T09:52:19.634Z,101963
2015-03-16T09:52:30.134Z,101963
2015-03-16T09:52:40.634Z,101966